createdAt,value
2022-12-14T00:01:49.419Z,8.00
2022-12-14T00:04:18.698Z,9.25
2022-12-14T00:06:46.948Z,8.50
2022-12-14T00:09:16.571Z,8.50
2022-12-14T00:11:44.838Z,8.75
2022-12-14T00:14:13.577Z,9.00
2022-12-14T00:16:41.891Z,8.00
2022-12-14T00:19:12.493Z,9.00
2022-12-14T00:21:41.011Z,8.75
2022-12-14T00:24:10.680Z,9.00
2022-12-14T00:26:39.224Z,8.00
2022-12-14T00:29:07.827Z,8.75
2022-12-14T00:31:36.806Z,8.25
2022-12-14T00:34:05.446Z,8.00
2022-12-14T00:36:33.711Z,8.50
2022-12-14T00:39:02.352Z,8.25
2022-12-14T00:41:30.534Z,8.33
2022-12-14T00:43:59.197Z,8.33
2022-12-14T00:46:27.448Z,9.00
2022-12-14T00:48:57.188Z,8.00
2022-12-14T00:51:25.507Z,8.50
2022-12-14T00:53:54.730Z,9.00
2022-12-14T00:56:23.448Z,8.00
2022-12-14T00:58:53.187Z,8.00
2022-12-14T01:01:22.570Z,8.75
2022-12-14T01:03:51.382Z,8.00
2022-12-14T01:06:22.045Z,8.00
2022-12-14T01:08:50.832Z,8.00
2022-12-14T01:11:19.339Z,8.33
2022-12-14T01:13:49.276Z,8.00
2022-12-14T01:16:18.511Z,7.67
2022-12-14T01:18:48.353Z,8.00
2022-12-14T01:21:21.966Z,8.25
2022-12-14T01:23:56.207Z,8.00
2022-12-14T01:26:26.307Z,7.25
2022-12-14T01:28:58.865Z,7.75
2022-12-14T01:31:31.570Z,7.67
2022-12-14T01:34:00.940Z,8.00
2022-12-14T01:36:31.797Z,7.75
2022-12-14T01:39:16.340Z,8.00
2022-12-14T01:41:50.568Z,8.25
2022-12-14T01:44:19.860Z,8.00
2022-12-14T01:46:51.464Z,7.50
2022-12-14T01:49:28.821Z,8.33
2022-12-14T01:52:10.298Z,7.25
2022-12-14T01:55:02.437Z,7.25
2022-12-14T01:57:45.328Z,7.50
2022-12-14T02:00:15.169Z,8.00
2022-12-14T02:02:54.297Z,8.75
2022-12-14T02:05:24.246Z,7.00
2022-12-14T02:07:55.126Z,8.25
2022-12-14T02:10:26.630Z,8.00
2022-12-14T02:13:19.128Z,7.00
2022-12-14T02:15:47.763Z,7.00
2022-12-14T02:18:20.837Z,7.25
2022-12-14T02:21:25.332Z,7.33
2022-12-14T02:24:28.748Z,8.00
2022-12-14T02:27:38.897Z,7.25
2022-12-14T02:30:11.337Z,8.00
2022-12-14T02:32:52.157Z,7.75
2022-12-14T02:35:49.568Z,6.67
2022-12-14T02:38:49.829Z,8.25
2022-12-14T02:41:38.635Z,7.00
2022-12-14T02:44:35.327Z,6.67
2022-12-14T02:47:22.343Z,7.33
2022-12-14T02:50:09.677Z,7.00
2022-12-14T02:52:48.051Z,7.50
2022-12-14T02:55:20.817Z,8.00
2022-12-14T02:57:49.058Z,8.00
2022-12-14T03:00:19.087Z,7.00
2022-12-14T03:02:48.621Z,7.00
2022-12-14T03:05:18.409Z,6.75
2022-12-14T03:07:58.397Z,7.75
2022-12-14T03:10:33.057Z,7.67
2022-12-14T03:13:14.627Z,7.33
2022-12-14T03:15:46.999Z,7.00
2022-12-14T03:18:18.286Z,7.00
2022-12-14T03:20:50.547Z,7.25
2022-12-14T03:23:29.454Z,7.50
2022-12-14T03:26:04.225Z,7.00
2022-12-14T03:28:34.640Z,7.00
2022-12-14T03:31:07.679Z,7.50
2022-12-14T03:33:37.945Z,7.67
2022-12-14T03:36:18.559Z,7.25
2022-12-14T03:38:50.949Z,7.50
2022-12-14T03:41:37.028Z,8.75
2022-12-14T03:44:23.548Z,7.00
2022-12-14T03:46:59.187Z,8.50
2022-12-14T03:50:18.367Z,9.00
2022-12-14T03:52:51.168Z,9.00
2022-12-14T03:55:36.187Z,7.50
2022-12-14T03:58:40.010Z,9.25
2022-12-14T04:01:31.120Z,9.50
2022-12-14T04:04:27.171Z,8.50
2022-12-14T04:06:58.040Z,9.67
2022-12-14T04:09:55.517Z,8.75
2022-12-14T04:12:54.476Z,9.00
2022-12-14T04:15:46.363Z,9.50
2022-12-14T04:18:42.335Z,8.00
2022-12-14T04:21:19.680Z,9.33
2022-12-14T04:24:15.559Z,9.50
2022-12-14T04:26:50.719Z,10.25
2022-12-14T04:29:47.183Z,10.00
2022-12-14T04:32:22.442Z,9.67
2022-12-14T04:34:55.449Z,10.33
2022-12-14T04:37:26.157Z,10.00
2022-12-14T04:39:58.487Z,10.50
2022-12-14T04:42:31.447Z,10.00
2022-12-14T04:45:07.640Z,10.75
2022-12-14T04:47:41.817Z,11.50
2022-12-14T04:50:19.240Z,11.00
2022-12-14T04:52:53.127Z,10.25
2022-12-14T04:55:30.280Z,11.50
2022-12-14T04:58:27.528Z,12.00
2022-12-14T05:01:01.889Z,11.50
2022-12-14T05:03:36.790Z,12.25
2022-12-14T05:06:17.618Z,12.00
2022-12-14T05:09:28.049Z,11.75
2022-12-14T05:12:15.718Z,12.33
2022-12-14T05:14:49.652Z,13.33
2022-12-14T05:17:19.000Z,11.25
2022-12-14T05:19:50.119Z,12.50
2022-12-14T05:22:19.412Z,12.00
2022-12-14T05:24:48.102Z,11.75
2022-12-14T05:27:16.489Z,13.00
2022-12-14T05:29:45.297Z,12.00
2022-12-14T05:32:14.217Z,13.00
2022-12-14T05:34:42.892Z,12.00
2022-12-14T05:37:16.392Z,11.33
2022-12-14T05:39:47.150Z,12.00
2022-12-14T05:42:15.746Z,11.50
2022-12-14T05:44:45.427Z,12.50
2022-12-14T05:47:14.637Z,12.00
2022-12-14T05:49:43.268Z,12.25
2022-12-14T05:52:11.517Z,13.00
2022-12-14T05:54:40.190Z,12.50
2022-12-14T05:57:08.469Z,12.00
2022-12-14T05:59:37.051Z,13.00
2022-12-14T06:02:05.561Z,12.50
2022-12-14T06:04:34.528Z,12.75
2022-12-14T06:07:02.938Z,12.75
2022-12-14T06:09:31.787Z,11.33
2022-12-14T06:12:00.417Z,12.50
2022-12-14T06:14:29.092Z,12.50
2022-12-14T06:16:57.476Z,13.00
2022-12-14T06:19:26.221Z,12.75
2022-12-14T06:21:54.648Z,13.00
2022-12-14T06:24:23.545Z,12.75
2022-12-14T06:26:52.027Z,12.33
2022-12-14T06:29:21.413Z,12.50
2022-12-14T06:31:50.286Z,13.33
2022-12-14T06:34:24.836Z,13.00
2022-12-14T06:36:56.478Z,12.50
2022-12-14T06:39:25.076Z,13.67
2022-12-14T06:41:53.347Z,13.00
2022-12-14T06:44:22.138Z,14.00
2022-12-14T06:46:51.586Z,13.50
2022-12-14T06:49:20.422Z,12.00
2022-12-14T06:51:48.872Z,12.75
2022-12-14T06:54:18.597Z,13.75
2022-12-14T06:56:48.080Z,14.75
2022-12-14T06:59:17.610Z,13.67
2022-12-14T07:01:49.549Z,13.50
2022-12-14T07:04:21.798Z,15.75
2022-12-14T07:06:50.203Z,13.75
2022-12-14T07:09:18.888Z,14.00
2022-12-14T07:11:51.240Z,13.00
2022-12-14T07:14:19.941Z,14.33
2022-12-14T07:16:48.997Z,14.67
2022-12-14T07:19:19.413Z,13.50
2022-12-14T07:21:47.857Z,15.00
2022-12-14T07:24:18.018Z,13.75
2022-12-14T07:26:46.911Z,13.00
2022-12-14T07:29:17.288Z,15.00
2022-12-14T07:31:49.536Z,14.50
2022-12-14T07:34:19.577Z,15.33
2022-12-14T07:36:51.389Z,14.00
2022-12-14T07:39:20.958Z,15.75
2022-12-14T07:41:50.908Z,14.00
2022-12-14T07:44:22.939Z,14.00
2022-12-14T07:46:51.485Z,15.00
2022-12-14T07:49:20.696Z,13.50
2022-12-14T07:51:49.198Z,14.00
2022-12-14T07:54:17.829Z,15.00
2022-12-14T07:56:46.157Z,13.50
2022-12-14T07:59:16.606Z,13.25
2022-12-14T08:01:45.583Z,14.75
2022-12-14T08:04:19.604Z,14.67
2022-12-14T08:06:48.897Z,15.75
2022-12-14T08:09:18.111Z,13.50
2022-12-14T08:11:47.088Z,14.00
2022-12-14T08:14:17.887Z,14.25
2022-12-14T08:16:48.369Z,14.50
2022-12-14T08:19:19.106Z,14.67
2022-12-14T08:21:47.599Z,13.50
2022-12-14T08:24:17.398Z,13.75
2022-12-14T08:26:49.016Z,14.00
2022-12-14T08:29:19.176Z,14.00
2022-12-14T08:31:48.051Z,13.50
2022-12-14T08:34:23.486Z,14.00
2022-12-14T08:36:52.020Z,14.75
2022-12-14T08:39:21.891Z,13.50
2022-12-14T08:41:50.608Z,12.75
2022-12-14T08:44:19.377Z,13.50
2022-12-14T08:46:48.272Z,13.00
2022-12-14T08:49:17.404Z,13.25
2022-12-14T08:51:45.797Z,13.75
2022-12-14T08:54:16.194Z,13.33
2022-12-14T08:56:44.507Z,13.00
2022-12-14T08:59:30.292Z,14.75
2022-12-14T09:02:02.459Z,12.50
2022-12-14T09:04:31.166Z,13.33
2022-12-14T09:06:59.406Z,13.00
2022-12-14T09:09:28.159Z,13.25
2022-12-14T09:11:56.626Z,13.50
2022-12-14T09:14:26.460Z,14.25
2022-12-14T09:16:54.930Z,13.50
2022-12-14T09:19:23.678Z,13.50
2022-12-14T09:21:52.159Z,14.33
2022-12-14T09:24:21.066Z,12.50
2022-12-14T09:26:49.427Z,12.50
2022-12-14T09:29:20.386Z,13.75
2022-12-14T09:31:48.710Z,12.50
2022-12-14T09:34:18.378Z,12.33
2022-12-14T09:36:47.239Z,13.33
2022-12-14T09:39:16.169Z,15.00
2022-12-14T09:42:06.361Z,13.50
2022-12-14T09:44:37.547Z,14.00
2022-12-14T09:47:38.034Z,13.50
2022-12-14T09:50:14.628Z,15.50
2022-12-14T09:52:52.810Z,14.25
2022-12-14T09:55:35.386Z,13.50
2022-12-14T09:58:03.727Z,13.75
2022-12-14T10:00:36.467Z,14.50
2022-12-14T10:03:33.722Z,13.50
2022-12-14T10:06:28.309Z,15.00
2022-12-14T10:09:20.908Z,14.50
2022-12-14T10:12:15.626Z,15.00
2022-12-14T10:15:17.837Z,15.25
2022-12-14T10:18:34.115Z,14.75
2022-12-14T10:21:14.140Z,14.00
2022-12-14T10:23:54.866Z,12.75
2022-12-14T10:26:27.828Z,13.75
2022-12-14T10:29:14.366Z,13.00
2022-12-14T10:31:56.367Z,14.00
2022-12-14T10:34:29.867Z,14.00
2022-12-14T10:37:37.666Z,13.50
2022-12-14T10:40:32.569Z,13.50
2022-12-14T10:43:14.870Z,13.50
2022-12-14T10:46:08.553Z,13.00
2022-12-14T10:48:48.291Z,13.25
2022-12-14T10:51:40.952Z,13.75
2022-12-14T10:54:25.081Z,12.75
2022-12-14T10:56:55.751Z,13.75
2022-12-14T10:59:26.326Z,12.50
2022-12-14T11:01:59.909Z,13.75
2022-12-14T11:04:33.257Z,13.00
2022-12-14T11:07:07.968Z,11.50
2022-12-14T11:09:37.558Z,13.75
2022-12-14T11:12:19.287Z,12.75
2022-12-14T11:15:01.795Z,11.50
2022-12-14T11:17:43.031Z,13.67
2022-12-14T11:20:17.588Z,13.75
2022-12-14T11:22:49.354Z,13.75
2022-12-14T11:25:35.539Z,13.00
2022-12-14T11:28:17.580Z,12.75
2022-12-14T11:31:04.727Z,14.00
2022-12-14T11:33:40.722Z,12.33
2022-12-14T11:36:09.616Z,12.67
2022-12-14T11:38:38.720Z,13.67
2022-12-14T11:41:11.863Z,13.00
2022-12-14T11:43:41.741Z,13.00
2022-12-14T11:46:10.450Z,13.50
2022-12-14T11:48:48.728Z,13.75
2022-12-14T11:51:17.326Z,12.75
2022-12-14T11:54:03.033Z,13.25
2022-12-14T11:56:32.448Z,13.00
2022-12-14T11:59:01.316Z,13.33
2022-12-14T12:01:30.775Z,11.75
2022-12-14T12:04:00.892Z,13.33
2022-12-14T12:06:30.606Z,12.75
2022-12-14T12:09:01.868Z,13.00
2022-12-14T12:11:32.435Z,11.00
2022-12-14T12:14:04.475Z,12.33
2022-12-14T12:16:33.374Z,14.00
2022-12-14T12:19:11.712Z,13.50
2022-12-14T12:21:42.742Z,12.00
2022-12-14T12:24:49.868Z,13.25
2022-12-14T12:27:26.340Z,12.75
2022-12-14T12:30:08.359Z,11.33
2022-12-14T12:32:53.516Z,12.33
2022-12-14T12:35:31.861Z,12.75
2022-12-14T12:38:10.018Z,12.00
2022-12-14T12:40:49.296Z,12.67
2022-12-14T12:43:30.256Z,12.75
2022-12-14T12:46:01.745Z,12.00
2022-12-14T12:48:46.461Z,13.25
2022-12-14T12:51:21.101Z,12.50
2022-12-14T12:53:54.531Z,11.00
2022-12-14T12:56:44.629Z,12.00
2022-12-14T12:59:27.464Z,11.33
2022-12-14T13:01:59.846Z,12.50
2022-12-14T13:04:33.342Z,11.50
2022-12-14T13:07:06.435Z,12.00
2022-12-14T13:09:44.034Z,12.50
2022-12-14T13:12:41.084Z,11.00
2022-12-14T13:15:24.792Z,11.00
2022-12-14T13:18:49.169Z,11.50
2022-12-14T13:21:33.194Z,10.50
2022-12-14T13:24:03.212Z,10.75
2022-12-14T13:26:57.317Z,11.00
2022-12-14T13:29:49.335Z,10.50
2022-12-14T13:32:37.188Z,11.00
2022-12-14T13:35:15.736Z,10.75
2022-12-14T13:38:06.183Z,12.00
2022-12-14T13:41:05.383Z,10.00
2022-12-14T13:43:52.661Z,10.00
2022-12-14T13:46:27.089Z,10.00
2022-12-14T13:49:03.270Z,10.00
2022-12-14T13:51:39.125Z,11.25
2022-12-14T13:54:19.309Z,11.00
2022-12-14T13:56:50.011Z,12.00
2022-12-14T13:59:29.029Z,10.67
2022-12-14T14:02:00.593Z,11.25
2022-12-14T14:04:34.410Z,10.75
2022-12-14T14:07:23.397Z,11.25
2022-12-14T14:10:05.358Z,11.00
2022-12-14T14:12:40.312Z,11.75
2022-12-14T14:15:09.167Z,12.00
2022-12-14T14:17:46.101Z,11.00
2022-12-14T14:20:41.250Z,12.00
2022-12-14T14:23:13.440Z,11.33
2022-12-14T14:26:10.179Z,12.00
2022-12-14T14:28:40.048Z,11.25
2022-12-14T14:31:09.037Z,10.25
2022-12-14T14:33:46.661Z,11.00
2022-12-14T14:36:28.008Z,12.00
2022-12-14T14:39:38.756Z,10.50
2022-12-14T14:42:05.955Z,10.75
2022-12-14T14:44:43.296Z,10.50
2022-12-14T14:47:24.854Z,10.50
2022-12-14T14:50:02.206Z,10.50
2022-12-14T14:52:40.169Z,11.00
2022-12-14T14:55:54.495Z,10.25
2022-12-14T14:58:26.726Z,11.50
2022-12-14T15:01:32.773Z,10.00
2022-12-14T15:04:20.029Z,10.50
2022-12-14T15:07:04.470Z,11.33
2022-12-14T15:10:08.365Z,10.50
2022-12-14T15:12:50.045Z,11.00
2022-12-14T15:15:37.488Z,10.00
2022-12-14T15:18:25.919Z,10.67
2022-12-14T15:21:04.489Z,10.25
2022-12-14T15:23:39.686Z,10.00
2022-12-14T15:26:29.347Z,10.33
2022-12-14T15:29:00.866Z,10.00
2022-12-14T15:31:35.898Z,11.00
2022-12-14T15:34:07.659Z,9.75
2022-12-14T15:36:40.569Z,9.50
2022-12-14T15:39:30.252Z,10.00
2022-12-14T15:42:04.009Z,10.00
2022-12-14T15:44:33.237Z,9.75
2022-12-14T15:47:02.221Z,9.00
2022-12-14T15:49:31.476Z,10.00
2022-12-14T15:52:01.203Z,9.00
2022-12-14T15:54:30.458Z,10.00
2022-12-14T15:57:00.493Z,9.50
2022-12-14T15:59:33.467Z,10.00
2022-12-14T16:02:21.696Z,9.00
2022-12-14T16:04:55.386Z,10.50
2022-12-14T16:07:33.936Z,10.25
2022-12-14T16:10:05.337Z,10.50
2022-12-14T16:12:44.271Z,10.75
2022-12-14T16:15:27.125Z,10.25
2022-12-14T16:18:02.146Z,10.00
2022-12-14T16:20:34.967Z,11.00
2022-12-14T16:23:15.788Z,10.75
2022-12-14T16:25:59.663Z,10.00
2022-12-14T16:28:28.282Z,10.00
2022-12-14T16:31:23.500Z,11.25
2022-12-14T16:34:19.141Z,11.00
2022-12-14T16:37:22.829Z,10.33
2022-12-14T16:39:41.459Z,11.00
2022-12-14T16:42:37.101Z,12.00
2022-12-14T16:45:06.276Z,12.33
2022-12-14T16:47:35.210Z,10.75
2022-12-14T16:50:40.060Z,11.75
2022-12-14T16:53:16.475Z,11.50
2022-12-14T16:56:03.536Z,11.00
2022-12-14T16:58:34.690Z,11.25
2022-12-14T17:01:06.499Z,11.50
2022-12-14T17:03:37.899Z,12.25
2022-12-14T17:06:07.316Z,11.75
2022-12-14T17:08:36.102Z,12.25
2022-12-14T17:11:04.641Z,12.25
2022-12-14T17:13:34.792Z,12.00
2022-12-14T17:16:06.331Z,12.00
2022-12-14T17:18:39.548Z,11.75
2022-12-14T17:21:10.721Z,11.00
2022-12-14T17:23:43.201Z,13.50
2022-12-14T17:26:26.452Z,11.50
2022-12-14T17:28:56.522Z,12.00
2022-12-14T17:31:27.283Z,13.00
2022-12-14T17:33:57.922Z,11.50
2022-12-14T17:36:28.992Z,12.67
2022-12-14T17:38:57.842Z,13.00
2022-12-14T17:41:27.395Z,12.50
2022-12-14T17:43:59.047Z,13.00
2022-12-14T17:46:27.705Z,12.00
2022-12-14T17:48:59.328Z,13.67
2022-12-14T17:51:32.002Z,12.25
2022-12-14T17:54:00.976Z,13.50
2022-12-14T17:56:30.080Z,12.50
2022-12-14T17:58:58.811Z,13.50
2022-12-14T18:01:27.346Z,13.00
2022-12-14T18:03:56.464Z,12.50
2022-12-14T18:06:24.958Z,12.75
2022-12-14T18:08:53.861Z,13.00
2022-12-14T18:11:24.313Z,12.75
2022-12-14T18:13:54.832Z,13.00
2022-12-14T18:16:24.842Z,13.00
2022-12-14T18:18:58.476Z,13.50
2022-12-14T18:21:29.523Z,13.00
2022-12-14T18:23:58.483Z,13.25
2022-12-14T18:26:26.892Z,13.50
2022-12-14T18:28:56.473Z,12.00
2022-12-14T18:31:34.976Z,12.00
2022-12-14T18:34:05.152Z,12.67
2022-12-14T18:36:33.772Z,13.50
2022-12-14T18:39:04.732Z,14.00
2022-12-14T18:41:34.341Z,14.00
2022-12-14T18:44:03.111Z,13.00
2022-12-14T18:46:31.682Z,13.00
2022-12-14T18:49:00.746Z,14.50
2022-12-14T18:51:29.302Z,13.00
2022-12-14T18:54:00.066Z,14.50
2022-12-14T18:56:29.492Z,13.50
2022-12-14T18:59:00.630Z,14.50
2022-12-14T19:01:29.244Z,13.67
2022-12-14T19:03:58.354Z,15.50
2022-12-14T19:06:44.128Z,14.50
2022-12-14T19:09:15.079Z,14.00
2022-12-14T19:11:43.784Z,12.75
2022-12-14T19:14:13.134Z,14.75
2022-12-14T19:16:41.478Z,15.50
2022-12-14T19:19:10.630Z,13.50
2022-12-14T19:21:39.305Z,15.00
2022-12-14T19:24:08.822Z,14.75
2022-12-14T19:26:39.686Z,15.75
2022-12-14T19:29:08.591Z,14.33
2022-12-14T19:31:37.329Z,15.50
2022-12-14T19:34:06.355Z,16.33
2022-12-14T19:36:34.874Z,14.00
2022-12-14T19:39:03.757Z,15.50
2022-12-14T19:41:32.286Z,15.67
2022-12-14T19:44:02.091Z,16.25
2022-12-14T19:46:30.705Z,15.75
2022-12-14T19:49:02.032Z,14.50
2022-12-14T19:51:30.742Z,14.33
2022-12-14T19:54:01.618Z,15.50
2022-12-14T19:56:30.237Z,15.75
2022-12-14T19:59:03.875Z,14.50
2022-12-14T20:01:36.867Z,16.50
2022-12-14T20:04:06.752Z,15.75
2022-12-14T20:06:35.396Z,14.75
2022-12-14T20:09:06.536Z,16.33
2022-12-14T20:11:35.117Z,14.75
2022-12-14T20:14:05.327Z,15.25
2022-12-14T20:16:34.030Z,14.00
2022-12-14T20:19:05.371Z,15.00
2022-12-14T20:21:34.578Z,16.75
2022-12-14T20:24:05.032Z,15.75
2022-12-14T20:26:33.677Z,17.00
2022-12-14T20:29:05.467Z,17.75
2022-12-14T20:31:35.931Z,17.25
2022-12-14T20:34:06.630Z,17.67
2022-12-14T20:36:35.132Z,16.50
2022-12-14T20:39:06.511Z,15.75
2022-12-14T20:41:34.972Z,17.00
2022-12-14T20:44:07.871Z,17.25
2022-12-14T20:46:38.977Z,17.25
2022-12-14T20:49:19.793Z,17.75
2022-12-14T20:51:48.945Z,17.00
2022-12-14T20:54:20.477Z,17.00
2022-12-14T20:56:49.471Z,18.25
2022-12-14T20:59:18.995Z,17.00
2022-12-14T21:01:53.413Z,16.00
2022-12-14T21:04:26.056Z,17.33
2022-12-14T21:06:54.735Z,16.50
2022-12-14T21:09:24.514Z,18.50
2022-12-14T21:12:12.516Z,17.25
2022-12-14T21:14:44.024Z,16.75
2022-12-14T21:17:14.055Z,16.50
2022-12-14T21:19:45.100Z,18.50
2022-12-14T21:22:17.057Z,18.00
2022-12-14T21:25:04.850Z,17.25
2022-12-14T21:27:39.245Z,16.00
2022-12-14T21:30:11.154Z,17.00
2022-12-14T21:32:39.884Z,16.50
2022-12-14T21:35:09.849Z,16.33
2022-12-14T21:37:39.084Z,17.75
2022-12-14T21:40:08.900Z,16.50
2022-12-14T21:42:37.293Z,15.50
2022-12-14T21:45:06.408Z,16.50
2022-12-14T21:47:34.836Z,17.00
2022-12-14T21:50:06.323Z,15.67
2022-12-14T21:52:35.060Z,15.75
2022-12-14T21:55:04.175Z,15.75
2022-12-14T21:57:51.132Z,16.50
2022-12-14T22:00:20.150Z,15.33
2022-12-14T22:02:50.246Z,16.25
2022-12-14T22:05:19.404Z,16.50
2022-12-14T22:07:47.828Z,15.00
2022-12-14T22:10:21.219Z,16.75
2022-12-14T22:12:52.966Z,16.00
2022-12-14T22:15:22.066Z,18.00
2022-12-14T22:17:52.020Z,16.50
2022-12-14T22:20:20.944Z,14.25
2022-12-14T22:22:49.446Z,16.00
2022-12-14T22:25:20.021Z,16.50
2022-12-14T22:27:49.852Z,17.75
2022-12-14T22:30:20.011Z,16.50
2022-12-14T22:32:48.260Z,16.25
2022-12-14T22:35:16.887Z,16.67
2022-12-14T22:37:45.716Z,17.00
2022-12-14T22:40:14.542Z,16.75
2022-12-14T22:42:43.278Z,18.00
2022-12-14T22:45:11.870Z,15.25
2022-12-14T22:47:40.403Z,16.50
2022-12-14T22:50:09.356Z,17.00
2022-12-14T22:52:38.436Z,17.00
2022-12-14T22:55:08.041Z,16.00
2022-12-14T22:57:44.207Z,18.00
2022-12-14T23:00:19.736Z,16.33
2022-12-14T23:02:49.000Z,17.25
2022-12-14T23:05:18.548Z,18.50
2022-12-14T23:07:46.845Z,16.00
2022-12-14T23:10:33.901Z,15.67
2022-12-14T23:13:20.849Z,17.50
2022-12-14T23:16:08.183Z,15.50
2022-12-14T23:18:55.097Z,17.25
2022-12-14T23:21:42.305Z,17.75
2022-12-14T23:24:29.386Z,16.00
2022-12-14T23:27:17.358Z,17.50
2022-12-14T23:30:04.533Z,17.00
2022-12-14T23:32:51.664Z,16.75
2022-12-14T23:35:38.611Z,17.75
2022-12-14T23:38:26.823Z,17.50
2022-12-14T23:41:20.646Z,16.50
2022-12-14T23:44:08.038Z,17.67
2022-12-14T23:46:55.145Z,17.00
2022-12-14T23:49:43.738Z,17.25
2022-12-14T23:52:30.565Z,16.50
2022-12-14T23:55:17.867Z,17.50
2022-12-14T23:58:04.885Z,18.25
